sensor_id;sensor_type;location;lat;lon;timestamp;P1;durP1;ratioP1;P2;durP2;ratioP2
16033;SDS011;8121;51.418;6.998;2023-08-30T00:04:41;3.90;;;3.50;;
16033;SDS011;8121;51.418;6.998;2023-08-30T00:09:44;8.63;;;3.20;;
16033;SDS011;8121;51.418;6.998;2023-08-30T00:14:46;3.17;;;2.97;;
16033;SDS011;8121;51.418;6.998;2023-08-30T00:19:47;3.37;;;3.07;;
16033;SDS011;8121;51.418;6.998;2023-08-30T00:24:50;3.43;;;2.93;;
16033;SDS011;8121;51.418;6.998;2023-08-30T00:29:52;3.70;;;3.40;;
16033;SDS011;8121;51.418;6.998;2023-08-30T00:34:53;2.63;;;2.43;;
16033;SDS011;8121;51.418;6.998;2023-08-30T00:39:56;7.10;;;3.93;;
16033;SDS011;8121;51.418;6.998;2023-08-30T00:44:59;7.43;;;3.77;;
16033;SDS011;8121;51.418;6.998;2023-08-30T00:50:01;4.00;;;3.43;;
16033;SDS011;8121;51.418;6.998;2023-08-30T00:55:04;4.83;;;4.37;;
16033;SDS011;8121;51.418;6.998;2023-08-30T01:00:07;4.03;;;3.73;;
16033;SDS011;8121;51.418;6.998;2023-08-30T01:05:10;4.37;;;3.97;;
16033;SDS011;8121;51.418;6.998;2023-08-30T01:10:13;5.73;;;5.13;;
16033;SDS011;8121;51.418;6.998;2023-08-30T01:15:15;6.93;;;4.63;;
16033;SDS011;8121;51.418;6.998;2023-08-30T01:20:21;5.30;;;4.33;;
16033;SDS011;8121;51.418;6.998;2023-08-30T01:25:27;4.60;;;3.87;;
16033;SDS011;8121;51.418;6.998;2023-08-30T01:30:36;4.87;;;4.37;;
16033;SDS011;8121;51.418;6.998;2023-08-30T01:35:39;6.63;;;4.60;;
16033;SDS011;8121;51.418;6.998;2023-08-30T01:40:41;9.03;;;5.97;;
16033;SDS011;8121;51.418;6.998;2023-08-30T01:45:45;6.93;;;5.63;;
16033;SDS011;8121;51.418;6.998;2023-08-30T01:50:47;7.53;;;4.70;;
16033;SDS011;8121;51.418;6.998;2023-08-30T01:55:48;12.40;;;6.93;;
16033;SDS011;8121;51.418;6.998;2023-08-30T02:00:51;6.30;;;5.50;;
16033;SDS011;8121;51.418;6.998;2023-08-30T02:05:56;8.70;;;6.23;;
16033;SDS011;8121;51.418;6.998;2023-08-30T02:11:04;7.77;;;5.90;;
16033;SDS011;8121;51.418;6.998;2023-08-30T02:16:10;6.40;;;5.53;;
16033;SDS011;8121;51.418;6.998;2023-08-30T02:21:13;8.30;;;6.80;;
16033;SDS011;8121;51.418;6.998;2023-08-30T02:26:14;5.83;;;4.80;;
16033;SDS011;8121;51.418;6.998;2023-08-30T02:31:17;10.33;;;6.80;;
16033;SDS011;8121;51.418;6.998;2023-08-30T02:36:19;6.00;;;5.40;;
16033;SDS011;8121;51.418;6.998;2023-08-30T02:41:20;9.23;;;5.90;;
16033;SDS011;8121;51.418;6.998;2023-08-30T02:46:23;8.30;;;7.27;;
16033;SDS011;8121;51.418;6.998;2023-08-30T02:51:24;8.60;;;6.57;;
16033;SDS011;8121;51.418;6.998;2023-08-30T02:56:26;8.03;;;6.43;;
16033;SDS011;8121;51.418;6.998;2023-08-30T03:01:29;8.20;;;5.60;;
16033;SDS011;8121;51.418;6.998;2023-08-30T03:06:31;11.93;;;7.13;;
16033;SDS011;8121;51.418;6.998;2023-08-30T03:11:33;6.87;;;5.93;;
16033;SDS011;8121;51.418;6.998;2023-08-30T03:16:36;7.83;;;5.93;;
16033;SDS011;8121;51.418;6.998;2023-08-30T03:21:37;9.20;;;6.40;;
16033;SDS011;8121;51.418;6.998;2023-08-30T03:26:39;8.00;;;5.70;;
16033;SDS011;8121;51.418;6.998;2023-08-30T03:31:42;8.23;;;7.20;;
16033;SDS011;8121;51.418;6.998;2023-08-30T03:36:44;7.70;;;6.73;;
16033;SDS011;8121;51.418;6.998;2023-08-30T03:41:50;11.13;;;6.33;;
16033;SDS011;8121;51.418;6.998;2023-08-30T03:46:53;11.73;;;8.33;;
16033;SDS011;8121;51.418;6.998;2023-08-30T03:51:56;11.10;;;8.20;;
16033;SDS011;8121;51.418;6.998;2023-08-30T03:56:58;11.30;;;8.80;;
16033;SDS011;8121;51.418;6.998;2023-08-30T04:02:01;13.90;;;8.13;;
16033;SDS011;8121;51.418;6.998;2023-08-30T04:07:02;9.67;;;7.27;;
16033;SDS011;8121;51.418;6.998;2023-08-30T04:12:04;9.47;;;7.30;;
16033;SDS011;8121;51.418;6.998;2023-08-30T04:17:08;9.37;;;6.43;;
16033;SDS011;8121;51.418;6.998;2023-08-30T04:22:09;9.00;;;7.03;;
16033;SDS011;8121;51.418;6.998;2023-08-30T04:27:11;10.47;;;7.30;;
16033;SDS011;8121;51.418;6.998;2023-08-30T04:32:14;13.10;;;7.70;;
16033;SDS011;8121;51.418;6.998;2023-08-30T04:37:15;12.13;;;8.37;;
16033;SDS011;8121;51.418;6.998;2023-08-30T04:42:17;11.63;;;8.30;;
16033;SDS011;8121;51.418;6.998;2023-08-30T04:47:19;9.70;;;7.40;;
16033;SDS011;8121;51.418;6.998;2023-08-30T04:52:21;15.03;;;8.60;;
16033;SDS011;8121;51.418;6.998;2023-08-30T04:57:22;17.43;;;10.57;;
16033;SDS011;8121;51.418;6.998;2023-08-30T05:02:25;13.90;;;9.80;;
16033;SDS011;8121;51.418;6.998;2023-08-30T05:07:27;13.30;;;9.10;;
16033;SDS011;8121;51.418;6.998;2023-08-30T05:12:28;15.20;;;10.80;;
16033;SDS011;8121;51.418;6.998;2023-08-30T05:17:31;12.23;;;8.60;;
16033;SDS011;8121;51.418;6.998;2023-08-30T05:22:33;10.20;;;7.27;;
16033;SDS011;8121;51.418;6.998;2023-08-30T05:27:34;15.47;;;10.80;;
16033;SDS011;8121;51.418;6.998;2023-08-30T05:32:37;18.93;;;10.07;;
16033;SDS011;8121;51.418;6.998;2023-08-30T05:37:39;11.87;;;8.00;;
16033;SDS011;8121;51.418;6.998;2023-08-30T05:42:40;11.30;;;8.00;;
16033;SDS011;8121;51.418;6.998;2023-08-30T05:47:43;13.83;;;7.10;;
16033;SDS011;8121;51.418;6.998;2023-08-30T05:52:44;18.90;;;8.40;;
16033;SDS011;8121;51.418;6.998;2023-08-30T05:57:46;10.23;;;7.97;;
16033;SDS011;8121;51.418;6.998;2023-08-30T06:02:49;16.07;;;9.03;;
16033;SDS011;8121;51.418;6.998;2023-08-30T06:07:51;18.17;;;9.37;;
16033;SDS011;8121;51.418;6.998;2023-08-30T06:12:53;10.80;;;8.30;;
16033;SDS011;8121;51.418;6.998;2023-08-30T06:17:55;23.50;;;10.30;;
16033;SDS011;8121;51.418;6.998;2023-08-30T06:22:58;11.50;;;6.90;;
16033;SDS011;8121;51.418;6.998;2023-08-30T06:28:00;9.60;;;7.47;;
16033;SDS011;8121;51.418;6.998;2023-08-30T06:33:04;12.07;;;8.20;;
16033;SDS011;8121;51.418;6.998;2023-08-30T06:38:06;14.33;;;7.20;;
16033;SDS011;8121;51.418;6.998;2023-08-30T06:43:08;13.37;;;6.43;;
16033;SDS011;8121;51.418;6.998;2023-08-30T06:48:11;12.83;;;6.10;;
16033;SDS011;8121;51.418;6.998;2023-08-30T06:53:12;4.90;;;4.40;;
16033;SDS011;8121;51.418;6.998;2023-08-30T06:58:13;6.93;;;5.70;;
16033;SDS011;8121;51.418;6.998;2023-08-30T07:03:16;8.10;;;5.03;;
16033;SDS011;8121;51.418;6.998;2023-08-30T07:08:18;10.90;;;7.37;;
16033;SDS011;8121;51.418;6.998;2023-08-30T07:13:19;6.87;;;5.47;;
16033;SDS011;8121;51.418;6.998;2023-08-30T07:18:22;10.87;;;9.10;;
16033;SDS011;8121;51.418;6.998;2023-08-30T07:23:24;12.70;;;8.60;;
16033;SDS011;8121;51.418;6.998;2023-08-30T07:28:25;7.50;;;6.50;;
16033;SDS011;8121;51.418;6.998;2023-08-30T07:33:28;5.83;;;4.67;;
16033;SDS011;8121;51.418;6.998;2023-08-30T07:38:29;8.30;;;5.80;;
16033;SDS011;8121;51.418;6.998;2023-08-30T07:43:31;12.90;;;7.13;;
16033;SDS011;8121;51.418;6.998;2023-08-30T07:48:34;5.00;;;4.37;;
16033;SDS011;8121;51.418;6.998;2023-08-30T07:53:35;7.30;;;5.17;;
16033;SDS011;8121;51.418;6.998;2023-08-30T07:58:37;4.40;;;4.00;;
16033;SDS011;8121;51.418;6.998;2023-08-30T08:03:39;7.13;;;4.80;;
16033;SDS011;8121;51.418;6.998;2023-08-30T08:08:41;4.90;;;4.37;;
16033;SDS011;8121;51.418;6.998;2023-08-30T08:13:45;3.50;;;3.20;;
16033;SDS011;8121;51.418;6.998;2023-08-30T08:18:48;3.60;;;3.10;;
16033;SDS011;8121;51.418;6.998;2023-08-30T08:23:50;4.13;;;3.73;;
16033;SDS011;8121;51.418;6.998;2023-08-30T08:28:53;4.37;;;3.40;;
16033;SDS011;8121;51.418;6.998;2023-08-30T08:34:06;3.00;;;2.80;;
16033;SDS011;8121;51.418;6.998;2023-08-30T08:39:09;4.13;;;3.20;;
16033;SDS011;8121;51.418;6.998;2023-08-30T08:44:12;7.53;;;3.80;;
16033;SDS011;8121;51.418;6.998;2023-08-30T08:49:16;5.43;;;3.80;;
16033;SDS011;8121;51.418;6.998;2023-08-30T08:54:17;7.07;;;2.77;;
16033;SDS011;8121;51.418;6.998;2023-08-30T08:59:19;5.40;;;3.57;;
16033;SDS011;8121;51.418;6.998;2023-08-30T09:04:23;2.80;;;2.60;;
16033;SDS011;8121;51.418;6.998;2023-08-30T09:09:26;2.90;;;2.10;;
16033;SDS011;8121;51.418;6.998;2023-08-30T09:14:27;2.83;;;2.60;;
16033;SDS011;8121;51.418;6.998;2023-08-30T09:19:30;3.57;;;2.73;;
16033;SDS011;8121;51.418;6.998;2023-08-30T09:24:38;3.90;;;3.30;;
16033;SDS011;8121;51.418;6.998;2023-08-30T09:29:40;6.63;;;3.60;;
16033;SDS011;8121;51.418;6.998;2023-08-30T09:34:48;4.30;;;2.93;;
16033;SDS011;8121;51.418;6.998;2023-08-30T09:39:50;3.80;;;2.00;;
16033;SDS011;8121;51.418;6.998;2023-08-30T09:44:51;3.50;;;2.60;;
16033;SDS011;8121;51.418;6.998;2023-08-30T09:49:55;3.83;;;2.03;;
16033;SDS011;8121;51.418;6.998;2023-08-30T09:54:57;3.20;;;2.90;;
16033;SDS011;8121;51.418;6.998;2023-08-30T09:59:58;2.70;;;2.37;;
16033;SDS011;8121;51.418;6.998;2023-08-30T10:05:02;2.90;;;1.93;;
16033;SDS011;8121;51.418;6.998;2023-08-30T10:10:05;1.80;;;1.70;;
16033;SDS011;8121;51.418;6.998;2023-08-30T10:15:07;5.60;;;2.30;;
16033;SDS011;8121;51.418;6.998;2023-08-30T10:20:10;5.77;;;4.00;;
16033;SDS011;8121;51.418;6.998;2023-08-30T10:25:13;3.93;;;3.60;;
16033;SDS011;8121;51.418;6.998;2023-08-30T10:30:16;5.27;;;3.43;;
16033;SDS011;8121;51.418;6.998;2023-08-30T10:35:20;3.50;;;2.60;;
16033;SDS011;8121;51.418;6.998;2023-08-30T10:40:22;3.70;;;3.40;;
16033;SDS011;8121;51.418;6.998;2023-08-30T10:45:23;4.37;;;2.90;;
16033;SDS011;8121;51.418;6.998;2023-08-30T10:50:29;8.63;;;5.10;;
16033;SDS011;8121;51.418;6.998;2023-08-30T10:55:32;2.53;;;2.33;;
16033;SDS011;8121;51.418;6.998;2023-08-30T11:00:33;5.43;;;3.30;;
16033;SDS011;8121;51.418;6.998;2023-08-30T11:05:37;2.90;;;2.70;;
16033;SDS011;8121;51.418;6.998;2023-08-30T11:10:41;3.50;;;2.60;;
16033;SDS011;8121;51.418;6.998;2023-08-30T11:15:43;2.00;;;1.67;;
16033;SDS011;8121;51.418;6.998;2023-08-30T11:20:46;3.87;;;2.33;;
16033;SDS011;8121;51.418;6.998;2023-08-30T11:25:49;5.47;;;3.67;;
16033;SDS011;8121;51.418;6.998;2023-08-30T11:30:53;6.17;;;2.90;;
16033;SDS011;8121;51.418;6.998;2023-08-30T11:35:56;3.07;;;2.67;;
16033;SDS011;8121;51.418;6.998;2023-08-30T11:40:57;6.10;;;2.40;;
16033;SDS011;8121;51.418;6.998;2023-08-30T11:45:59;1.93;;;1.43;;
16033;SDS011;8121;51.418;6.998;2023-08-30T11:51:02;6.53;;;3.00;;
16033;SDS011;8121;51.418;6.998;2023-08-30T11:56:03;5.67;;;4.50;;
16033;SDS011;8121;51.418;6.998;2023-08-30T12:01:06;2.87;;;2.67;;
16033;SDS011;8121;51.418;6.998;2023-08-30T12:06:10;3.17;;;2.67;;
16033;SDS011;8121;51.418;6.998;2023-08-30T12:11:18;3.80;;;3.13;;
16033;SDS011;8121;51.418;6.998;2023-08-30T12:16:20;7.53;;;2.23;;
16033;SDS011;8121;51.418;6.998;2023-08-30T12:21:23;4.47;;;4.10;;
16033;SDS011;8121;51.418;6.998;2023-08-30T12:26:31;2.63;;;2.40;;
16033;SDS011;8121;51.418;6.998;2023-08-30T12:31:33;9.53;;;6.33;;
16033;SDS011;8121;51.418;6.998;2023-08-30T12:36:36;3.63;;;3.20;;
16033;SDS011;8121;51.418;6.998;2023-08-30T12:41:38;2.80;;;2.60;;
16033;SDS011;8121;51.418;6.998;2023-08-30T12:46:41;1.93;;;1.83;;
16033;SDS011;8121;51.418;6.998;2023-08-30T12:51:44;4.13;;;2.57;;
16033;SDS011;8121;51.418;6.998;2023-08-30T12:56:45;1.77;;;1.67;;
16033;SDS011;8121;51.418;6.998;2023-08-30T13:01:47;1.90;;;1.80;;
16033;SDS011;8121;51.418;6.998;2023-08-30T13:06:50;1.67;;;1.57;;
16033;SDS011;8121;51.418;6.998;2023-08-30T13:11:52;1.63;;;1.53;;
16033;SDS011;8121;51.418;6.998;2023-08-30T13:16:53;1.83;;;1.73;;
16033;SDS011;8121;51.418;6.998;2023-08-30T13:21:56;2.90;;;2.70;;
16033;SDS011;8121;51.418;6.998;2023-08-30T13:26:57;4.50;;;1.60;;
16033;SDS011;8121;51.418;6.998;2023-08-30T13:31:59;2.50;;;2.30;;
16033;SDS011;8121;51.418;6.998;2023-08-30T13:37:02;2.47;;;2.27;;
16033;SDS011;8121;51.418;6.998;2023-08-30T13:42:03;3.07;;;2.13;;
16033;SDS011;8121;51.418;6.998;2023-08-30T13:47:05;2.80;;;1.80;;
16033;SDS011;8121;51.418;6.998;2023-08-30T13:52:08;1.50;;;1.40;;
16033;SDS011;8121;51.418;6.998;2023-08-30T13:57:10;2.27;;;2.07;;
16033;SDS011;8121;51.418;6.998;2023-08-30T14:02:11;2.20;;;2.10;;
16033;SDS011;8121;51.418;6.998;2023-08-30T14:07:14;2.43;;;2.07;;
16033;SDS011;8121;51.418;6.998;2023-08-30T14:12:15;3.43;;;1.40;;
16033;SDS011;8121;51.418;6.998;2023-08-30T14:17:17;1.70;;;1.60;;
16033;SDS011;8121;51.418;6.998;2023-08-30T14:22:20;1.40;;;1.30;;
16033;SDS011;8121;51.418;6.998;2023-08-30T14:27:21;1.43;;;1.33;;
16033;SDS011;8121;51.418;6.998;2023-08-30T14:32:23;1.53;;;1.43;;
16033;SDS011;8121;51.418;6.998;2023-08-30T14:37:25;1.30;;;1.20;;
16033;SDS011;8121;51.418;6.998;2023-08-30T14:42:27;2.40;;;2.00;;
16033;SDS011;8121;51.418;6.998;2023-08-30T14:47:29;4.70;;;1.73;;
16033;SDS011;8121;51.418;6.998;2023-08-30T14:52:32;1.20;;;1.10;;
16033;SDS011;8121;51.418;6.998;2023-08-30T14:57:33;1.87;;;1.60;;
16033;SDS011;8121;51.418;6.998;2023-08-30T15:02:35;2.50;;;1.60;;
16033;SDS011;8121;51.418;6.998;2023-08-30T15:07:37;1.70;;;1.60;;
16033;SDS011;8121;51.418;6.998;2023-08-30T15:12:39;2.03;;;1.83;;
16033;SDS011;8121;51.418;6.998;2023-08-30T15:17:40;2.50;;;2.30;;
16033;SDS011;8121;51.418;6.998;2023-08-30T15:22:43;1.70;;;1.60;;
16033;SDS011;8121;51.418;6.998;2023-08-30T15:27:45;3.67;;;1.53;;
16033;SDS011;8121;51.418;6.998;2023-08-30T15:32:46;1.73;;;1.57;;
16033;SDS011;8121;51.418;6.998;2023-08-30T15:37:49;1.83;;;1.73;;
16033;SDS011;8121;51.418;6.998;2023-08-30T15:42:50;1.50;;;1.40;;
16033;SDS011;8121;51.418;6.998;2023-08-30T15:47:52;2.03;;;1.50;;
16033;SDS011;8121;51.418;6.998;2023-08-30T15:52:55;2.50;;;1.80;;
16033;SDS011;8121;51.418;6.998;2023-08-30T15:57:56;1.70;;;1.60;;
16033;SDS011;8121;51.418;6.998;2023-08-30T16:02:58;2.80;;;1.67;;
16033;SDS011;8121;51.418;6.998;2023-08-30T16:08:01;2.43;;;2.23;;
16033;SDS011;8121;51.418;6.998;2023-08-30T16:13:03;6.03;;;3.50;;
16033;SDS011;8121;51.418;6.998;2023-08-30T16:18:05;2.57;;;2.37;;
16033;SDS011;8121;51.418;6.998;2023-08-30T16:23:08;2.37;;;2.17;;
16033;SDS011;8121;51.418;6.998;2023-08-30T16:28:09;3.70;;;2.30;;
16033;SDS011;8121;51.418;6.998;2023-08-30T16:33:11;3.10;;;2.90;;
16033;SDS011;8121;51.418;6.998;2023-08-30T16:38:18;2.13;;;2.03;;
16033;SDS011;8121;51.418;6.998;2023-08-30T16:43:20;2.80;;;2.57;;
16033;SDS011;8121;51.418;6.998;2023-08-30T16:48:21;1.90;;;1.80;;
16033;SDS011;8121;51.418;6.998;2023-08-30T16:53:25;4.67;;;3.17;;
16033;SDS011;8121;51.418;6.998;2023-08-30T16:58:27;7.60;;;5.00;;
16033;SDS011;8121;51.418;6.998;2023-08-30T17:03:28;3.07;;;2.60;;
16033;SDS011;8121;51.418;6.998;2023-08-30T17:08:31;2.23;;;2.03;;
16033;SDS011;8121;51.418;6.998;2023-08-30T17:13:34;2.20;;;2.00;;
16033;SDS011;8121;51.418;6.998;2023-08-30T17:18:36;4.43;;;2.43;;
16033;SDS011;8121;51.418;6.998;2023-08-30T17:23:39;3.97;;;2.17;;
16033;SDS011;8121;51.418;6.998;2023-08-30T17:28:40;4.67;;;3.00;;
16033;SDS011;8121;51.418;6.998;2023-08-30T17:33:42;3.73;;;2.80;;
16033;SDS011;8121;51.418;6.998;2023-08-30T17:38:45;3.93;;;2.40;;
16033;SDS011;8121;51.418;6.998;2023-08-30T17:43:47;4.57;;;4.00;;
16033;SDS011;8121;51.418;6.998;2023-08-30T17:48:48;4.20;;;3.80;;
16033;SDS011;8121;51.418;6.998;2023-08-30T17:53:51;5.70;;;3.67;;
16033;SDS011;8121;51.418;6.998;2023-08-30T17:58:53;5.57;;;2.57;;
16033;SDS011;8121;51.418;6.998;2023-08-30T18:03:54;2.50;;;1.40;;
16033;SDS011;8121;51.418;6.998;2023-08-30T18:08:57;3.17;;;2.40;;
16033;SDS011;8121;51.418;6.998;2023-08-30T18:13:59;4.77;;;2.03;;
16033;SDS011;8121;51.418;6.998;2023-08-30T18:19:00;3.90;;;2.37;;
16033;SDS011;8121;51.418;6.998;2023-08-30T18:24:18;11.40;;;2.30;;
16033;SDS011;8121;51.418;6.998;2023-08-30T18:29:20;3.97;;;2.10;;
16033;SDS011;8121;51.418;6.998;2023-08-30T18:34:23;8.83;;;1.87;;
16033;SDS011;8121;51.418;6.998;2023-08-30T18:39:28;1.83;;;1.73;;
16033;SDS011;8121;51.418;6.998;2023-08-30T18:44:31;1.40;;;1.30;;
16033;SDS011;8121;51.418;6.998;2023-08-30T18:49:33;3.57;;;1.73;;
16033;SDS011;8121;51.418;6.998;2023-08-30T18:54:36;1.70;;;1.60;;
16033;SDS011;8121;51.418;6.998;2023-08-30T18:59:43;1.57;;;1.47;;
16033;SDS011;8121;51.418;6.998;2023-08-30T19:04:45;8.07;;;2.27;;
16033;SDS011;8121;51.418;6.998;2023-08-30T19:09:48;5.33;;;2.10;;
16033;SDS011;8121;51.418;6.998;2023-08-30T19:14:49;4.47;;;1.80;;
16033;SDS011;8121;51.418;6.998;2023-08-30T19:19:51;4.40;;;1.87;;
16033;SDS011;8121;51.418;6.998;2023-08-30T19:24:53;1.50;;;1.40;;
16033;SDS011;8121;51.418;6.998;2023-08-30T19:29:55;4.57;;;2.37;;
16033;SDS011;8121;51.418;6.998;2023-08-30T19:34:56;2.30;;;2.10;;
16033;SDS011;8121;51.418;6.998;2023-08-30T19:39:59;1.83;;;1.73;;
16033;SDS011;8121;51.418;6.998;2023-08-30T19:45:04;1.43;;;1.33;;
16033;SDS011;8121;51.418;6.998;2023-08-30T19:50:08;1.73;;;1.53;;
16033;SDS011;8121;51.418;6.998;2023-08-30T19:55:11;2.13;;;1.90;;
16033;SDS011;8121;51.418;6.998;2023-08-30T20:00:13;2.83;;;2.27;;
16033;SDS011;8121;51.418;6.998;2023-08-30T20:05:15;2.33;;;2.10;;
16033;SDS011;8121;51.418;6.998;2023-08-30T20:10:18;6.43;;;2.17;;
16033;SDS011;8121;51.418;6.998;2023-08-30T20:15:20;2.23;;;2.03;;
16033;SDS011;8121;51.418;6.998;2023-08-30T20:20:22;2.87;;;1.80;;
16033;SDS011;8121;51.418;6.998;2023-08-30T20:25:26;2.60;;;1.40;;
16033;SDS011;8121;51.418;6.998;2023-08-30T20:30:29;2.00;;;1.53;;
16033;SDS011;8121;51.418;6.998;2023-08-30T20:35:30;5.87;;;1.87;;
16033;SDS011;8121;51.418;6.998;2023-08-30T20:40:42;1.70;;;1.20;;
16033;SDS011;8121;51.418;6.998;2023-08-30T20:45:44;2.90;;;1.43;;
16033;SDS011;8121;51.418;6.998;2023-08-30T20:50:45;2.40;;;1.20;;
16033;SDS011;8121;51.418;6.998;2023-08-30T20:55:48;2.30;;;1.53;;
16033;SDS011;8121;51.418;6.998;2023-08-30T21:00:53;5.20;;;1.60;;
16033;SDS011;8121;51.418;6.998;2023-08-30T21:05:55;1.40;;;1.10;;
16033;SDS011;8121;51.418;6.998;2023-08-30T21:10:58;1.50;;;1.40;;
16033;SDS011;8121;51.418;6.998;2023-08-30T21:15:59;2.40;;;1.40;;
16033;SDS011;8121;51.418;6.998;2023-08-30T21:21:01;1.37;;;1.27;;
16033;SDS011;8121;51.418;6.998;2023-08-30T21:26:04;2.43;;;1.20;;
16033;SDS011;8121;51.418;6.998;2023-08-30T21:31:06;2.40;;;1.37;;
16033;SDS011;8121;51.418;6.998;2023-08-30T21:36:10;1.80;;;1.70;;
16033;SDS011;8121;51.418;6.998;2023-08-30T21:41:13;2.03;;;1.73;;
16033;SDS011;8121;51.418;6.998;2023-08-30T21:46:17;2.83;;;1.63;;
16033;SDS011;8121;51.418;6.998;2023-08-30T21:51:19;4.30;;;1.87;;
16033;SDS011;8121;51.418;6.998;2023-08-30T21:56:22;1.63;;;1.40;;
16033;SDS011;8121;51.418;6.998;2023-08-30T22:06:26;2.90;;;1.43;;
16033;SDS011;8121;51.418;6.998;2023-08-30T22:11:29;3.40;;;2.00;;
16033;SDS011;8121;51.418;6.998;2023-08-30T22:16:31;4.80;;;1.80;;
16033;SDS011;8121;51.418;6.998;2023-08-30T22:21:33;5.47;;;1.87;;
16033;SDS011;8121;51.418;6.998;2023-08-30T22:26:36;7.93;;;1.70;;
16033;SDS011;8121;51.418;6.998;2023-08-30T22:31:37;6.93;;;1.30;;
16033;SDS011;8121;51.418;6.998;2023-08-30T22:36:39;2.77;;;1.03;;
16033;SDS011;8121;51.418;6.998;2023-08-30T22:41:42;4.00;;;1.90;;
16033;SDS011;8121;51.418;6.998;2023-08-30T22:46:44;1.97;;;1.70;;
16033;SDS011;8121;51.418;6.998;2023-08-30T22:51:45;3.93;;;1.20;;
16033;SDS011;8121;51.418;6.998;2023-08-30T22:56:48;1.83;;;1.27;;
16033;SDS011;8121;51.418;6.998;2023-08-30T23:01:49;9.60;;;1.50;;
16033;SDS011;8121;51.418;6.998;2023-08-30T23:06:51;1.27;;;0.90;;
16033;SDS011;8121;51.418;6.998;2023-08-30T23:11:54;0.80;;;0.80;;
16033;SDS011;8121;51.418;6.998;2023-08-30T23:16:56;1.73;;;1.00;;
16033;SDS011;8121;51.418;6.998;2023-08-30T23:21:57;1.37;;;0.80;;
16033;SDS011;8121;51.418;6.998;2023-08-30T23:27:01;2.80;;;0.80;;
16033;SDS011;8121;51.418;6.998;2023-08-30T23:32:02;1.20;;;1.00;;
16033;SDS011;8121;51.418;6.998;2023-08-30T23:37:04;2.40;;;1.13;;
16033;SDS011;8121;51.418;6.998;2023-08-30T23:42:08;2.70;;;0.90;;
16033;SDS011;8121;51.418;6.998;2023-08-30T23:47:09;5.20;;;1.03;;
16033;SDS011;8121;51.418;6.998;2023-08-30T23:52:11;3.13;;;1.27;;
16033;SDS011;8121;51.418;6.998;2023-08-30T23:57:14;4.80;;;1.27;;
